createdAt,value
2019-01-05T00:02:58.849Z,1.00
2019-01-05T00:05:56.614Z,0.80
2019-01-05T00:08:47.819Z,0.77
2019-01-05T00:12:04.427Z,0.83
2019-01-05T00:14:53.978Z,1.07
2019-01-05T00:17:53.473Z,0.80
2019-01-05T00:20:42.480Z,0.97
2019-01-05T00:23:47.415Z,0.90
2019-01-05T00:26:47.462Z,1.20
2019-01-05T00:29:47.806Z,1.60
2019-01-05T00:32:47.832Z,3.23
2019-01-05T00:35:46.778Z,2.50
2019-01-05T00:38:46.851Z,3.37
2019-01-05T00:41:50.242Z,2.40
2019-01-05T00:44:50.635Z,1.30
2019-01-05T00:47:52.800Z,1.20
2019-01-05T00:50:52.676Z,0.90
2019-01-05T00:53:58.793Z,0.60
2019-01-05T00:56:58.675Z,0.60
2019-01-05T00:59:51.347Z,0.67
2019-01-05T01:02:51.611Z,0.80
2019-01-05T01:05:46.711Z,0.70
2019-01-05T01:08:45.587Z,0.50
2019-01-05T01:11:37.385Z,0.50
2019-01-05T01:14:37.695Z,0.50
2019-01-05T01:17:37.450Z,0.50
2019-01-05T01:20:36.892Z,0.80
2019-01-05T01:23:36.415Z,0.50
2019-01-05T01:26:39.629Z,0.50
2019-01-05T01:29:39.478Z,0.53
2019-01-05T01:32:39.562Z,0.70
2019-01-05T01:35:42.205Z,0.63
2019-01-05T01:38:42.117Z,0.70
2019-01-05T01:41:42.503Z,0.80
2019-01-05T01:44:41.947Z,0.83
2019-01-05T01:47:33.857Z,0.90
2019-01-05T01:50:33.978Z,0.83
2019-01-05T01:53:34.340Z,0.77
2019-01-05T01:56:33.964Z,1.40
2019-01-05T01:59:33.671Z,1.00
2019-01-05T02:02:36.104Z,1.10
2019-01-05T02:05:41.707Z,1.10
2019-01-05T02:08:41.059Z,1.10
2019-01-05T02:11:40.692Z,1.20
2019-01-05T02:14:40.226Z,1.17
2019-01-05T02:17:39.791Z,1.23
2019-01-05T02:20:39.472Z,1.57
2019-01-05T02:23:35.439Z,1.57
2019-01-05T02:26:35.720Z,1.80
2019-01-05T02:29:35.972Z,1.30
2019-01-05T02:32:41.487Z,1.47
2019-01-05T02:35:41.527Z,0.93
2019-01-05T02:38:41.764Z,1.50
2019-01-05T02:41:34.682Z,1.33
2019-01-05T02:44:34.089Z,1.07
2019-01-05T02:47:33.708Z,1.00
2019-01-05T02:50:33.348Z,0.90
2019-01-05T02:53:32.948Z,0.70
2019-01-05T02:56:33.150Z,0.80
2019-01-05T02:59:33.470Z,0.87
2019-01-05T03:02:33.108Z,0.87
2019-01-05T03:05:32.496Z,0.80
2019-01-05T03:08:32.879Z,0.70
2019-01-05T03:11:32.252Z,0.63
2019-01-05T03:14:32.408Z,0.90
2019-01-05T03:17:29.464Z,1.07
2019-01-05T03:20:22.785Z,0.97
2019-01-05T03:23:22.540Z,1.03
2019-01-05T03:26:24.697Z,1.20
2019-01-05T03:29:20.121Z,1.00
2019-01-05T03:32:24.022Z,1.10
2019-01-05T03:35:18.199Z,1.20
2019-01-05T03:38:17.664Z,0.93
2019-01-05T03:41:17.325Z,0.80
2019-01-05T03:44:16.881Z,0.87
2019-01-05T03:47:13.149Z,0.80
2019-01-05T03:50:12.712Z,0.80
2019-01-05T03:53:13.066Z,0.50
2019-01-05T03:56:04.300Z,0.60
2019-01-05T03:59:06.700Z,0.40
2019-01-05T04:02:06.413Z,0.60
2019-01-05T04:05:05.275Z,0.63
2019-01-05T04:08:06.152Z,0.60
2019-01-05T04:11:05.597Z,0.50
2019-01-05T04:13:56.865Z,0.63
2019-01-05T04:16:45.664Z,0.50
2019-01-05T04:19:45.934Z,0.47
2019-01-05T04:22:46.095Z,0.50
2019-01-05T04:25:46.388Z,0.70
2019-01-05T04:28:52.626Z,0.80
2019-01-05T04:31:52.783Z,0.70
2019-01-05T04:34:52.170Z,0.80
2019-01-05T04:37:51.844Z,0.77
2019-01-05T04:40:52.120Z,0.70
2019-01-05T04:43:51.619Z,0.60
2019-01-05T04:46:49.074Z,0.60
2019-01-05T04:49:48.891Z,0.70
2019-01-05T04:52:49.171Z,0.50
2019-01-05T04:55:52.124Z,0.40
2019-01-05T04:58:51.559Z,0.50
2019-01-05T05:01:51.508Z,0.50
2019-01-05T05:04:54.756Z,0.43
2019-01-05T05:07:49.527Z,0.40
2019-01-05T05:10:49.608Z,0.57
2019-01-05T05:13:52.823Z,0.50
2019-01-05T05:16:52.131Z,0.50
2019-01-05T05:19:45.652Z,0.80
2019-01-05T05:22:45.140Z,0.50
2019-01-05T05:25:44.549Z,0.40
2019-01-05T05:28:34.857Z,0.50
2019-01-05T05:31:34.614Z,0.50
2019-01-05T05:34:32.621Z,0.50
2019-01-05T05:37:32.045Z,0.40
2019-01-05T05:40:31.560Z,0.40
2019-01-05T05:43:34.227Z,0.40
2019-01-05T05:46:39.064Z,0.43
2019-01-05T05:49:39.146Z,0.40
2019-01-05T05:52:39.244Z,0.40
2019-01-05T05:55:38.742Z,0.40
2019-01-05T05:58:38.191Z,0.30
2019-01-05T06:01:34.551Z,0.40
2019-01-05T06:04:34.784Z,0.37
2019-01-05T06:07:35.086Z,0.30
2019-01-05T06:10:35.219Z,0.40
2019-01-05T06:13:30.919Z,0.40
2019-01-05T06:16:30.304Z,0.30
2019-01-05T06:19:29.969Z,0.30
2019-01-05T06:22:29.732Z,0.40
2019-01-05T06:25:29.377Z,0.47
2019-01-05T06:28:26.207Z,0.40
2019-01-05T06:31:26.131Z,0.37
2019-01-05T06:34:26.124Z,0.40
2019-01-05T06:37:26.327Z,0.40
2019-01-05T06:40:25.753Z,0.40
2019-01-05T06:43:31.175Z,0.40
2019-01-05T06:46:31.169Z,0.30
2019-01-05T06:49:31.475Z,0.40
2019-01-05T06:52:28.055Z,0.40
2019-01-05T06:55:23.980Z,0.40
2019-01-05T06:58:23.717Z,0.30
2019-01-05T07:01:29.171Z,0.33
2019-01-05T07:04:29.012Z,0.40
2019-01-05T07:07:29.265Z,0.40
2019-01-05T07:10:26.524Z,0.40
2019-01-05T07:13:26.040Z,0.40
2019-01-05T07:16:25.566Z,0.40
2019-01-05T07:19:25.804Z,0.30
2019-01-05T07:22:25.909Z,0.30
2019-01-05T07:25:21.695Z,0.40
2019-01-05T07:28:21.731Z,0.47
2019-01-05T07:31:27.043Z,0.40
2019-01-05T07:34:26.811Z,0.40
2019-01-05T07:37:32.268Z,0.40
2019-01-05T07:40:31.643Z,0.40
2019-01-05T07:43:32.083Z,0.40
2019-01-05T07:46:32.164Z,0.40
2019-01-05T07:49:31.765Z,0.43
2019-01-05T07:52:32.159Z,0.40
2019-01-05T07:55:46.550Z,0.40
2019-01-05T07:58:45.888Z,0.50
2019-01-05T08:01:46.264Z,0.47
2019-01-05T08:04:46.268Z,0.40
2019-01-05T08:07:45.456Z,0.47
2019-01-05T08:10:48.299Z,0.30
2019-01-05T08:13:48.667Z,0.40
2019-01-05T08:16:48.125Z,0.40
2019-01-05T08:19:48.263Z,0.40
2019-01-05T08:25:56.822Z,0.40
2019-01-05T08:28:56.243Z,0.40
2019-01-05T08:31:57.603Z,0.40
2019-01-05T08:34:57.876Z,0.40
2019-01-05T08:37:57.516Z,0.40
2019-01-05T08:40:55.753Z,0.30
2019-01-05T08:43:56.923Z,0.40
2019-01-05T08:49:38.553Z,0.40
2019-01-05T08:52:38.925Z,0.40
2019-01-05T08:55:38.932Z,0.40
2019-01-05T08:58:39.179Z,0.40
2019-01-05T09:01:38.968Z,0.40
2019-01-05T09:04:38.477Z,0.30
2019-01-05T09:07:33.360Z,0.47
2019-01-05T09:10:33.500Z,0.40
2019-01-05T09:13:39.568Z,0.40
2019-01-05T09:16:39.700Z,0.50
2019-01-05T09:19:34.287Z,0.40
2019-01-05T09:22:34.319Z,0.40
2019-01-05T09:25:37.579Z,0.40
2019-01-05T09:28:37.651Z,0.40
2019-01-05T09:31:37.940Z,0.40
2019-01-05T09:34:38.219Z,0.40
2019-01-05T09:37:32.726Z,0.50
2019-01-05T09:40:36.194Z,0.50
2019-01-05T09:43:36.283Z,0.60
2019-01-05T09:46:38.871Z,0.60
2019-01-05T09:49:38.326Z,0.50
2019-01-05T09:52:37.792Z,0.43
2019-01-05T09:55:43.163Z,0.40
2019-01-05T09:58:42.744Z,0.50
2019-01-05T10:01:43.043Z,0.40
2019-01-05T10:04:42.847Z,0.63
2019-01-05T10:07:41.944Z,0.50
2019-01-05T10:10:41.700Z,0.50
2019-01-05T10:13:47.069Z,0.40
2019-01-05T10:16:48.124Z,0.60
2019-01-05T10:19:48.184Z,0.60
2019-01-05T10:22:54.585Z,0.70
2019-01-05T10:25:54.916Z,0.90
2019-01-05T10:28:54.450Z,0.80
2019-01-05T10:31:54.044Z,0.70
2019-01-05T10:34:59.778Z,0.60
2019-01-05T10:37:59.379Z,0.50
2019-01-05T10:40:53.243Z,0.40
2019-01-05T10:43:53.191Z,0.40
2019-01-05T10:46:59.619Z,0.40
2019-01-05T10:49:59.853Z,0.30
2019-01-05T10:53:00.137Z,0.40
2019-01-05T10:56:01.870Z,0.40
2019-01-05T11:01:44.895Z,0.60
2019-01-05T11:04:44.905Z,0.47
2019-01-05T11:07:48.011Z,0.50
2019-01-05T11:10:48.574Z,0.53
2019-01-05T11:13:48.807Z,0.50
2019-01-05T11:19:29.963Z,0.40
2019-01-05T11:22:32.573Z,0.40
2019-01-05T11:25:35.052Z,0.43
2019-01-05T11:28:37.656Z,0.67
2019-01-05T11:31:37.126Z,0.50
2019-01-05T11:34:39.544Z,0.70
2019-01-05T11:37:39.346Z,0.60
2019-01-05T11:40:38.890Z,0.63
2019-01-05T11:43:38.522Z,0.53
2019-01-05T11:46:38.395Z,0.60
2019-01-05T11:49:38.083Z,0.80
2019-01-05T11:52:37.612Z,0.50
2019-01-05T11:55:40.735Z,0.70
2019-01-05T11:58:40.019Z,0.60
2019-01-05T12:01:40.304Z,0.60
2019-01-05T12:04:40.599Z,0.87
2019-01-05T12:07:42.902Z,1.23
2019-01-05T12:10:42.593Z,0.87
2019-01-05T12:13:41.929Z,0.80
2019-01-05T12:16:41.456Z,0.80
2019-01-05T12:19:41.455Z,0.63
2019-01-05T12:22:40.719Z,0.60
2019-01-05T12:25:40.740Z,0.70
2019-01-05T12:28:41.294Z,0.70
2019-01-05T12:32:07.584Z,0.60
2019-01-05T12:35:33.878Z,0.50
2019-01-05T12:39:00.163Z,0.70
2019-01-05T12:42:26.457Z,0.70
2019-01-05T12:45:49.092Z,1.10
2019-01-05T12:49:15.423Z,1.00
2019-01-05T12:52:18.354Z,0.73
2019-01-05T12:55:18.251Z,1.07
2019-01-05T12:58:18.228Z,1.57
2019-01-05T13:01:18.068Z,1.80
2019-01-05T13:11:13.504Z,1.10
2019-01-05T13:14:39.801Z,1.37
2019-01-05T13:18:06.111Z,1.30
2019-01-05T13:21:27.375Z,1.53
2019-01-05T13:24:53.668Z,1.20
2019-01-05T13:28:19.960Z,1.20
2019-01-05T13:31:46.240Z,1.93
2019-01-05T13:35:12.538Z,1.97
2019-01-05T13:38:38.852Z,2.20
2019-01-05T13:42:05.161Z,1.90
2019-01-05T13:45:31.429Z,1.40
2019-01-05T13:48:57.717Z,1.30
2019-01-05T13:52:03.524Z,1.40
2019-01-05T13:55:03.100Z,1.03
2019-01-05T13:58:02.576Z,1.20
2019-01-05T14:01:02.048Z,1.40
2019-01-05T14:04:01.977Z,1.53
2019-01-05T14:07:02.188Z,2.17
2019-01-05T14:10:01.618Z,2.23
2019-01-05T14:13:01.384Z,2.17
2019-01-05T14:16:01.406Z,1.90
2019-01-05T14:19:01.452Z,1.60
2019-01-05T14:22:01.094Z,1.70
2019-01-05T14:25:01.294Z,1.37
2019-01-05T14:28:07.107Z,1.03
2019-01-05T14:31:07.379Z,1.13
2019-01-05T14:34:07.643Z,0.77
2019-01-05T14:37:07.225Z,1.60
2019-01-05T14:40:06.713Z,2.13
2019-01-05T14:43:06.577Z,2.23
2019-01-05T14:46:06.693Z,2.13
2019-01-05T14:49:06.359Z,2.00
2019-01-05T14:52:00.759Z,1.60
2019-01-05T14:54:58.028Z,1.83
2019-01-05T14:57:57.720Z,1.80
2019-01-05T15:00:57.999Z,1.47
2019-01-05T15:03:58.144Z,1.30
2019-01-05T15:06:58.436Z,1.47
2019-01-05T15:09:46.379Z,1.83
2019-01-05T15:12:53.459Z,1.67
2019-01-05T15:16:00.551Z,2.73
2019-01-05T15:19:07.636Z,2.03
2019-01-05T15:22:14.711Z,2.57
2019-01-05T15:25:21.807Z,2.57
2019-01-05T15:28:28.886Z,2.53
2019-01-05T15:31:35.975Z,2.43
2019-01-05T15:34:43.088Z,2.67
2019-01-05T15:37:50.211Z,2.30
2019-01-05T15:40:57.304Z,2.90
2019-01-05T15:44:04.380Z,2.63
2019-01-05T15:47:11.464Z,2.57
2019-01-05T15:50:14.155Z,3.40
2019-01-05T15:53:14.070Z,3.17
2019-01-05T15:56:13.606Z,2.80
2019-01-05T15:59:13.039Z,4.20
2019-01-05T16:02:09.835Z,3.10
2019-01-05T16:05:12.331Z,3.60
2019-01-05T16:08:12.444Z,4.97
2019-01-05T16:11:12.695Z,3.10
2019-01-05T16:14:12.243Z,2.40
2019-01-05T16:17:11.752Z,4.53
2019-01-05T16:20:12.143Z,4.90
2019-01-05T16:23:18.259Z,5.50
2019-01-05T16:26:17.696Z,4.40
2019-01-05T16:29:17.094Z,3.37
2019-01-05T16:32:16.463Z,3.47
2019-01-05T16:35:16.005Z,3.17
2019-01-05T16:38:19.652Z,2.70
2019-01-05T16:41:20.221Z,2.20
2019-01-05T16:44:20.360Z,2.63
2019-01-05T16:47:22.446Z,2.80
2019-01-05T16:50:22.415Z,2.03
2019-01-05T16:53:27.966Z,2.33
2019-01-05T16:56:31.035Z,2.60
2019-01-05T16:59:30.588Z,6.80
2019-01-05T17:02:29.099Z,8.70
2019-01-05T17:05:17.915Z,11.80
2019-01-05T17:08:24.331Z,13.53
2019-01-05T17:11:21.183Z,16.23
2019-01-05T17:17:28.769Z,5.27
2019-01-05T17:20:35.845Z,10.30
2019-01-05T17:23:42.926Z,9.50
2019-01-05T17:26:50.015Z,7.80
2019-01-05T17:29:57.088Z,7.73
2019-01-05T17:33:04.214Z,6.20
2019-01-05T17:36:11.365Z,7.07
2019-01-05T17:39:18.442Z,6.70
2019-01-05T17:42:25.541Z,7.13
2019-01-05T17:45:32.715Z,13.13
2019-01-05T17:48:39.792Z,18.17
2019-01-05T17:54:21.084Z,14.97
2019-01-05T17:57:20.763Z,10.90
2019-01-05T18:00:20.319Z,16.43
2019-01-05T18:03:21.765Z,19.57
2019-01-05T18:06:21.557Z,17.30
2019-01-05T18:09:27.280Z,23.73
2019-01-05T18:12:27.622Z,23.63
2019-01-05T18:15:27.072Z,27.27
2019-01-05T18:18:26.526Z,25.80
2019-01-05T18:21:16.827Z,15.03
2019-01-05T18:24:20.163Z,11.90
2019-01-05T18:27:20.361Z,16.23
2019-01-05T18:30:18.088Z,12.17
2019-01-05T18:33:18.522Z,5.10
2019-01-05T18:36:24.968Z,6.90
2019-01-05T18:39:31.375Z,6.57
2019-01-05T18:42:31.660Z,12.23
2019-01-05T18:45:38.068Z,11.83
2019-01-05T18:48:40.531Z,8.93
2019-01-05T18:51:40.089Z,11.80
2019-01-05T18:54:42.648Z,8.40
2019-01-05T18:57:42.156Z,7.30
2019-01-05T19:00:42.231Z,6.27
2019-01-05T19:03:37.279Z,9.90
2019-01-05T19:06:40.479Z,9.63
2019-01-05T19:09:40.692Z,6.70
2019-01-05T19:12:40.828Z,5.70
2019-01-05T19:15:41.134Z,6.80
2019-01-05T19:18:40.609Z,5.30
2019-01-05T19:21:40.794Z,6.20
2019-01-05T19:24:46.406Z,5.97
2019-01-05T19:27:46.599Z,5.10
2019-01-05T19:30:46.556Z,9.83
2019-01-05T19:33:49.065Z,11.90
2019-01-05T19:36:48.556Z,26.00
2019-01-05T19:39:47.891Z,28.87
2019-01-05T19:42:47.631Z,20.07
2019-01-05T19:45:47.169Z,20.10
2019-01-05T19:48:46.723Z,23.90
2019-01-05T19:51:47.023Z,24.80
2019-01-05T19:54:47.188Z,23.27
2019-01-05T19:57:49.580Z,19.70
2019-01-05T20:00:46.184Z,24.80
2019-01-05T20:03:48.804Z,20.03
2019-01-05T20:06:45.928Z,27.63
2019-01-05T20:09:46.108Z,25.50
2019-01-05T20:12:45.520Z,26.17
2019-01-05T20:15:45.316Z,21.07
2019-01-05T20:18:50.698Z,18.00
2019-01-05T20:21:50.628Z,12.17
2019-01-05T20:24:44.179Z,10.50
2019-01-05T20:27:50.167Z,9.53
2019-01-05T20:30:56.330Z,17.70
2019-01-05T20:33:55.815Z,17.10
2019-01-05T20:36:55.320Z,16.90
2019-01-05T20:39:57.531Z,19.57
2019-01-05T20:43:03.471Z,24.30
2019-01-05T20:46:09.571Z,22.40
2019-01-05T20:49:09.233Z,20.13
2019-01-05T20:52:09.266Z,22.53
2019-01-05T20:55:09.644Z,26.33
2019-01-05T20:58:09.073Z,37.30
2019-01-05T21:01:09.251Z,24.07
2019-01-05T21:04:03.707Z,30.23
2019-01-05T21:07:03.453Z,31.97
2019-01-05T21:10:03.681Z,24.00
2019-01-05T21:13:03.236Z,13.87
2019-01-05T21:16:02.820Z,10.70
2019-01-05T21:19:05.536Z,7.40
2019-01-05T21:22:05.091Z,7.67
2019-01-05T21:25:05.375Z,16.33
2019-01-05T21:28:07.841Z,7.30
2019-01-05T21:31:07.284Z,6.70
2019-01-05T21:34:07.418Z,5.10
2019-01-05T21:37:07.765Z,5.00
2019-01-05T21:40:04.455Z,3.40
2019-01-05T21:43:04.775Z,4.30
2019-01-05T21:46:04.142Z,3.87
2019-01-05T21:49:03.874Z,5.80
2019-01-05T21:52:04.111Z,6.57
2019-01-05T21:55:09.733Z,7.90
2019-01-05T21:58:02.547Z,10.80
2019-01-05T22:01:03.603Z,10.60
2019-01-05T22:04:03.707Z,13.77
2019-01-05T22:07:06.264Z,18.70
2019-01-05T22:10:06.411Z,24.30
2019-01-05T22:13:05.867Z,21.83
2019-01-05T22:16:06.555Z,15.80
2019-01-05T22:18:59.633Z,19.40
2019-01-05T22:21:59.547Z,10.60
2019-01-05T22:24:54.049Z,13.90
2019-01-05T22:27:54.044Z,14.30
2019-01-05T22:30:54.223Z,5.10
2019-01-05T22:33:54.407Z,3.60
2019-01-05T22:36:54.532Z,3.20
2019-01-05T22:39:53.830Z,2.50
2019-01-05T22:42:53.468Z,3.07
2019-01-05T22:45:52.889Z,3.07
2019-01-05T22:48:57.855Z,3.90
2019-01-05T22:51:58.232Z,1.93
2019-01-05T22:55:04.607Z,3.37
2019-01-05T22:58:05.645Z,2.83
2019-01-05T23:01:12.796Z,2.93
2019-01-05T23:04:19.902Z,3.10
2019-01-05T23:07:26.988Z,3.53
2019-01-05T23:10:34.092Z,3.60
2019-01-05T23:13:41.200Z,3.20
2019-01-05T23:16:48.276Z,3.70
2019-01-05T23:19:55.465Z,3.87
2019-01-05T23:23:02.556Z,4.70
2019-01-05T23:26:09.665Z,6.67
2019-01-05T23:29:16.763Z,4.93
2019-01-05T23:32:23.860Z,5.87
2019-01-05T23:35:30.947Z,7.63
2019-01-05T23:38:38.061Z,9.60
2019-01-05T23:41:45.344Z,16.90
2019-01-05T23:44:52.629Z,14.20
2019-01-05T23:47:59.704Z,21.43
2019-01-05T23:50:59.118Z,19.17
2019-01-05T23:53:58.697Z,13.03
2019-01-05T23:56:58.441Z,16.00
2019-01-05T23:59:56.954Z,22.63
